sensor_id;sensor_type;location;lat;lon;timestamp;P1;durP1;ratioP1;P2;durP2;ratioP2
10154;SDS011;5118;48.570;7.916;2023-06-14T00:01:07;7.00;;;6.13;;
10154;SDS011;5118;48.570;7.916;2023-06-14T00:03:36;7.97;;;5.90;;
10154;SDS011;5118;48.570;7.916;2023-06-14T00:06:05;7.13;;;6.10;;
10154;SDS011;5118;48.570;7.916;2023-06-14T00:08:35;6.83;;;6.07;;
10154;SDS011;5118;48.570;7.916;2023-06-14T00:11:04;7.67;;;6.20;;
10154;SDS011;5118;48.570;7.916;2023-06-14T00:13:32;8.10;;;6.13;;
10154;SDS011;5118;48.570;7.916;2023-06-14T00:16:01;6.70;;;6.20;;
10154;SDS011;5118;48.570;7.916;2023-06-14T00:18:30;8.47;;;6.30;;
10154;SDS011;5118;48.570;7.916;2023-06-14T00:20:59;7.57;;;5.70;;
10154;SDS011;5118;48.570;7.916;2023-06-14T00:23:28;6.83;;;6.17;;
10154;SDS011;5118;48.570;7.916;2023-06-14T00:25:58;7.73;;;6.20;;
10154;SDS011;5118;48.570;7.916;2023-06-14T00:28:27;9.03;;;6.60;;
10154;SDS011;5118;48.570;7.916;2023-06-14T00:30:55;7.03;;;6.33;;
10154;SDS011;5118;48.570;7.916;2023-06-14T00:33:24;7.57;;;6.33;;
10154;SDS011;5118;48.570;7.916;2023-06-14T00:35:54;6.90;;;6.17;;
10154;SDS011;5118;48.570;7.916;2023-06-14T00:38:23;6.90;;;6.20;;
10154;SDS011;5118;48.570;7.916;2023-06-14T00:40:51;7.73;;;6.57;;
10154;SDS011;5118;48.570;7.916;2023-06-14T00:43:21;8.27;;;6.57;;
10154;SDS011;5118;48.570;7.916;2023-06-14T00:45:49;8.63;;;6.50;;
10154;SDS011;5118;48.570;7.916;2023-06-14T00:48:18;8.10;;;6.70;;
10154;SDS011;5118;48.570;7.916;2023-06-14T00:50:48;7.53;;;6.70;;
10154;SDS011;5118;48.570;7.916;2023-06-14T00:53:19;6.80;;;6.10;;
10154;SDS011;5118;48.570;7.916;2023-06-14T00:55:50;7.13;;;6.40;;
10154;SDS011;5118;48.570;7.916;2023-06-14T00:58:20;6.60;;;6.00;;
10154;SDS011;5118;48.570;7.916;2023-06-14T01:00:50;7.37;;;6.40;;
10154;SDS011;5118;48.570;7.916;2023-06-14T01:03:19;7.07;;;6.10;;
10154;SDS011;5118;48.570;7.916;2023-06-14T01:05:49;6.57;;;5.97;;
10154;SDS011;5118;48.570;7.916;2023-06-14T01:08:26;6.33;;;5.80;;
10154;SDS011;5118;48.570;7.916;2023-06-14T01:11:05;10.17;;;6.47;;
10154;SDS011;5118;48.570;7.916;2023-06-14T01:13:42;6.73;;;6.13;;
10154;SDS011;5118;48.570;7.916;2023-06-14T01:16:13;6.80;;;6.07;;
10154;SDS011;5118;48.570;7.916;2023-06-14T01:18:42;6.87;;;6.27;;
10154;SDS011;5118;48.570;7.916;2023-06-14T01:21:20;6.97;;;6.37;;
10154;SDS011;5118;48.570;7.916;2023-06-14T01:23:50;8.70;;;6.30;;
10154;SDS011;5118;48.570;7.916;2023-06-14T01:26:21;7.80;;;6.00;;
10154;SDS011;5118;48.570;7.916;2023-06-14T01:28:51;6.90;;;6.13;;
10154;SDS011;5118;48.570;7.916;2023-06-14T01:31:25;8.63;;;6.33;;
10154;SDS011;5118;48.570;7.916;2023-06-14T01:33:56;8.70;;;6.20;;
10154;SDS011;5118;48.570;7.916;2023-06-14T01:36:24;7.10;;;6.40;;
10154;SDS011;5118;48.570;7.916;2023-06-14T01:38:57;6.87;;;6.13;;
10154;SDS011;5118;48.570;7.916;2023-06-14T01:41:27;7.13;;;6.17;;
10154;SDS011;5118;48.570;7.916;2023-06-14T01:43:57;7.77;;;6.67;;
10154;SDS011;5118;48.570;7.916;2023-06-14T01:46:26;7.47;;;6.37;;
10154;SDS011;5118;48.570;7.916;2023-06-14T01:48:54;7.93;;;6.80;;
10154;SDS011;5118;48.570;7.916;2023-06-14T01:51:23;7.27;;;6.57;;
10154;SDS011;5118;48.570;7.916;2023-06-14T01:53:51;9.70;;;6.80;;
10154;SDS011;5118;48.570;7.916;2023-06-14T01:56:21;8.13;;;6.90;;
10154;SDS011;5118;48.570;7.916;2023-06-14T01:58:50;7.20;;;6.50;;
10154;SDS011;5118;48.570;7.916;2023-06-14T02:01:19;6.90;;;6.30;;
10154;SDS011;5118;48.570;7.916;2023-06-14T02:03:48;7.70;;;6.30;;
10154;SDS011;5118;48.570;7.916;2023-06-14T02:06:17;11.70;;;6.97;;
10154;SDS011;5118;48.570;7.916;2023-06-14T02:08:46;8.67;;;7.00;;
10154;SDS011;5118;48.570;7.916;2023-06-14T02:11:14;7.23;;;6.37;;
10154;SDS011;5118;48.570;7.916;2023-06-14T02:13:44;8.17;;;6.67;;
10154;SDS011;5118;48.570;7.916;2023-06-14T02:16:13;9.43;;;6.90;;
10154;SDS011;5118;48.570;7.916;2023-06-14T02:18:44;8.50;;;7.10;;
10154;SDS011;5118;48.570;7.916;2023-06-14T02:21:12;7.03;;;6.43;;
10154;SDS011;5118;48.570;7.916;2023-06-14T02:23:40;8.23;;;6.50;;
10154;SDS011;5118;48.570;7.916;2023-06-14T02:26:09;7.60;;;6.63;;
10154;SDS011;5118;48.570;7.916;2023-06-14T02:28:37;8.10;;;6.80;;
10154;SDS011;5118;48.570;7.916;2023-06-14T02:31:09;12.10;;;7.50;;
10154;SDS011;5118;48.570;7.916;2023-06-14T02:33:38;8.17;;;6.70;;
10154;SDS011;5118;48.570;7.916;2023-06-14T02:36:06;9.97;;;6.97;;
10154;SDS011;5118;48.570;7.916;2023-06-14T02:38:34;8.23;;;6.70;;
10154;SDS011;5118;48.570;7.916;2023-06-14T02:41:03;8.20;;;6.83;;
10154;SDS011;5118;48.570;7.916;2023-06-14T02:43:32;7.43;;;6.73;;
10154;SDS011;5118;48.570;7.916;2023-06-14T02:46:01;8.23;;;6.80;;
10154;SDS011;5118;48.570;7.916;2023-06-14T02:48:31;7.83;;;7.03;;
10154;SDS011;5118;48.570;7.916;2023-06-14T02:51:00;8.03;;;7.33;;
10154;SDS011;5118;48.570;7.916;2023-06-14T02:53:28;8.73;;;7.60;;
10154;SDS011;5118;48.570;7.916;2023-06-14T02:55:57;9.90;;;7.77;;
10154;SDS011;5118;48.570;7.916;2023-06-14T02:58:27;8.83;;;7.30;;
10154;SDS011;5118;48.570;7.916;2023-06-14T03:00:56;8.10;;;7.30;;
10154;SDS011;5118;48.570;7.916;2023-06-14T03:03:28;8.90;;;7.17;;
10154;SDS011;5118;48.570;7.916;2023-06-14T03:05:59;9.03;;;7.00;;
10154;SDS011;5118;48.570;7.916;2023-06-14T03:08:35;7.87;;;7.10;;
10154;SDS011;5118;48.570;7.916;2023-06-14T03:11:11;8.17;;;7.37;;
10154;SDS011;5118;48.570;7.916;2023-06-14T03:13:41;8.03;;;7.23;;
10154;SDS011;5118;48.570;7.916;2023-06-14T03:16:10;8.40;;;7.30;;
10154;SDS011;5118;48.570;7.916;2023-06-14T03:18:40;8.60;;;7.03;;
10154;SDS011;5118;48.570;7.916;2023-06-14T03:21:10;8.07;;;7.37;;
10154;SDS011;5118;48.570;7.916;2023-06-14T03:23:41;10.23;;;7.90;;
10154;SDS011;5118;48.570;7.916;2023-06-14T03:26:11;9.40;;;7.00;;
10154;SDS011;5118;48.570;7.916;2023-06-14T03:28:42;11.13;;;7.53;;
10154;SDS011;5118;48.570;7.916;2023-06-14T03:31:10;9.87;;;7.97;;
10154;SDS011;5118;48.570;7.916;2023-06-14T03:33:39;7.93;;;7.13;;
10154;SDS011;5118;48.570;7.916;2023-06-14T03:36:09;10.23;;;7.70;;
10154;SDS011;5118;48.570;7.916;2023-06-14T03:38:39;9.00;;;7.60;;
10154;SDS011;5118;48.570;7.916;2023-06-14T03:41:07;9.80;;;7.63;;
10154;SDS011;5118;48.570;7.916;2023-06-14T03:43:37;8.50;;;7.63;;
10154;SDS011;5118;48.570;7.916;2023-06-14T03:46:05;8.77;;;7.90;;
10154;SDS011;5118;48.570;7.916;2023-06-14T03:48:34;10.33;;;7.83;;
10154;SDS011;5118;48.570;7.916;2023-06-14T03:51:03;8.87;;;8.07;;
10154;SDS011;5118;48.570;7.916;2023-06-14T03:53:33;11.57;;;7.47;;
10154;SDS011;5118;48.570;7.916;2023-06-14T03:56:19;10.27;;;7.70;;
10154;SDS011;5118;48.570;7.916;2023-06-14T03:58:48;10.00;;;7.87;;
10154;SDS011;5118;48.570;7.916;2023-06-14T04:01:17;8.40;;;7.53;;
10154;SDS011;5118;48.570;7.916;2023-06-14T04:03:46;8.73;;;7.60;;
10154;SDS011;5118;48.570;7.916;2023-06-14T04:06:14;8.43;;;7.63;;
10154;SDS011;5118;48.570;7.916;2023-06-14T04:08:48;7.87;;;7.17;;
10154;SDS011;5118;48.570;7.916;2023-06-14T04:11:17;15.13;;;7.87;;
10154;SDS011;5118;48.570;7.916;2023-06-14T04:13:46;9.00;;;8.00;;
10154;SDS011;5118;48.570;7.916;2023-06-14T04:16:14;11.03;;;7.77;;
10154;SDS011;5118;48.570;7.916;2023-06-14T04:18:43;9.47;;;8.57;;
10154;SDS011;5118;48.570;7.916;2023-06-14T04:21:13;11.60;;;10.40;;
10154;SDS011;5118;48.570;7.916;2023-06-14T04:23:42;10.70;;;8.47;;
10154;SDS011;5118;48.570;7.916;2023-06-14T04:26:14;8.87;;;7.37;;
10154;SDS011;5118;48.570;7.916;2023-06-14T04:28:44;8.47;;;7.67;;
10154;SDS011;5118;48.570;7.916;2023-06-14T04:31:13;9.30;;;8.30;;
10154;SDS011;5118;48.570;7.916;2023-06-14T04:33:43;9.77;;;8.77;;
10154;SDS011;5118;48.570;7.916;2023-06-14T04:36:20;10.33;;;9.13;;
10154;SDS011;5118;48.570;7.916;2023-06-14T04:38:49;9.90;;;8.90;;
10154;SDS011;5118;48.570;7.916;2023-06-14T04:41:24;10.80;;;8.43;;
10154;SDS011;5118;48.570;7.916;2023-06-14T04:43:57;12.80;;;9.23;;
10154;SDS011;5118;48.570;7.916;2023-06-14T04:46:31;9.80;;;8.87;;
10154;SDS011;5118;48.570;7.916;2023-06-14T04:49:09;9.73;;;8.23;;
10154;SDS011;5118;48.570;7.916;2023-06-14T04:51:41;9.43;;;8.10;;
10154;SDS011;5118;48.570;7.916;2023-06-14T04:54:10;8.80;;;8.00;;
10154;SDS011;5118;48.570;7.916;2023-06-14T04:56:42;10.70;;;7.30;;
10154;SDS011;5118;48.570;7.916;2023-06-14T04:59:11;8.60;;;7.37;;
10154;SDS011;5118;48.570;7.916;2023-06-14T05:01:41;7.50;;;6.83;;
10154;SDS011;5118;48.570;7.916;2023-06-14T05:04:15;7.97;;;7.17;;
10154;SDS011;5118;48.570;7.916;2023-06-14T05:06:44;9.20;;;7.10;;
10154;SDS011;5118;48.570;7.916;2023-06-14T05:09:15;8.00;;;7.20;;
10154;SDS011;5118;48.570;7.916;2023-06-14T05:11:45;8.40;;;7.53;;
10154;SDS011;5118;48.570;7.916;2023-06-14T05:14:14;7.93;;;7.00;;
10154;SDS011;5118;48.570;7.916;2023-06-14T05:16:42;7.40;;;6.70;;
10154;SDS011;5118;48.570;7.916;2023-06-14T05:19:11;9.57;;;6.93;;
10154;SDS011;5118;48.570;7.916;2023-06-14T05:21:39;8.93;;;6.90;;
10154;SDS011;5118;48.570;7.916;2023-06-14T05:24:09;8.03;;;7.23;;
10154;SDS011;5118;48.570;7.916;2023-06-14T05:26:38;8.20;;;7.07;;
10154;SDS011;5118;48.570;7.916;2023-06-14T05:29:07;7.50;;;6.50;;
10154;SDS011;5118;48.570;7.916;2023-06-14T05:31:36;10.10;;;6.93;;
10154;SDS011;5118;48.570;7.916;2023-06-14T05:34:04;12.73;;;7.10;;
10154;SDS011;5118;48.570;7.916;2023-06-14T05:36:33;11.63;;;7.33;;
10154;SDS011;5118;48.570;7.916;2023-06-14T05:39:03;10.40;;;6.93;;
10154;SDS011;5118;48.570;7.916;2023-06-14T05:41:33;8.77;;;7.43;;
10154;SDS011;5118;48.570;7.916;2023-06-14T05:44:01;10.40;;;7.37;;
10154;SDS011;5118;48.570;7.916;2023-06-14T05:46:31;10.60;;;6.60;;
10154;SDS011;5118;48.570;7.916;2023-06-14T05:48:59;11.87;;;6.93;;
10154;SDS011;5118;48.570;7.916;2023-06-14T05:51:28;10.13;;;6.63;;
10154;SDS011;5118;48.570;7.916;2023-06-14T05:53:56;8.60;;;6.83;;
10154;SDS011;5118;48.570;7.916;2023-06-14T05:56:25;10.57;;;6.63;;
10154;SDS011;5118;48.570;7.916;2023-06-14T05:58:53;11.83;;;6.50;;
10154;SDS011;5118;48.570;7.916;2023-06-14T06:01:24;8.50;;;6.60;;
10154;SDS011;5118;48.570;7.916;2023-06-14T06:03:54;11.30;;;7.00;;
10154;SDS011;5118;48.570;7.916;2023-06-14T06:06:22;7.03;;;6.43;;
10154;SDS011;5118;48.570;7.916;2023-06-14T06:08:51;10.07;;;6.40;;
10154;SDS011;5118;48.570;7.916;2023-06-14T06:11:19;8.30;;;6.60;;
10154;SDS011;5118;48.570;7.916;2023-06-14T06:13:48;6.60;;;6.00;;
10154;SDS011;5118;48.570;7.916;2023-06-14T06:16:17;10.03;;;6.30;;
10154;SDS011;5118;48.570;7.916;2023-06-14T06:18:45;8.50;;;6.43;;
10154;SDS011;5118;48.570;7.916;2023-06-14T06:21:15;9.30;;;5.80;;
10154;SDS011;5118;48.570;7.916;2023-06-14T06:23:43;8.67;;;6.30;;
10154;SDS011;5118;48.570;7.916;2023-06-14T06:26:12;7.67;;;6.20;;
10154;SDS011;5118;48.570;7.916;2023-06-14T06:28:40;6.30;;;5.70;;
10154;SDS011;5118;48.570;7.916;2023-06-14T06:31:09;6.50;;;5.80;;
10154;SDS011;5118;48.570;7.916;2023-06-14T06:33:37;8.13;;;6.10;;
10154;SDS011;5118;48.570;7.916;2023-06-14T06:36:07;6.70;;;6.00;;
10154;SDS011;5118;48.570;7.916;2023-06-14T06:38:39;6.93;;;5.57;;
10154;SDS011;5118;48.570;7.916;2023-06-14T06:41:08;9.03;;;5.93;;
10154;SDS011;5118;48.570;7.916;2023-06-14T06:43:36;8.00;;;5.47;;
10154;SDS011;5118;48.570;7.916;2023-06-14T06:46:05;9.93;;;5.97;;
10154;SDS011;5118;48.570;7.916;2023-06-14T06:48:34;6.80;;;5.83;;
10154;SDS011;5118;48.570;7.916;2023-06-14T06:51:02;6.30;;;5.70;;
10154;SDS011;5118;48.570;7.916;2023-06-14T06:53:32;6.60;;;6.00;;
10154;SDS011;5118;48.570;7.916;2023-06-14T06:56:12;7.27;;;5.80;;
10154;SDS011;5118;48.570;7.916;2023-06-14T06:58:40;8.43;;;5.50;;
10154;SDS011;5118;48.570;7.916;2023-06-14T07:01:08;6.40;;;5.80;;
10154;SDS011;5118;48.570;7.916;2023-06-14T07:03:38;7.93;;;5.83;;
10154;SDS011;5118;48.570;7.916;2023-06-14T07:06:06;8.20;;;5.70;;
10154;SDS011;5118;48.570;7.916;2023-06-14T07:08:35;7.63;;;5.87;;
10154;SDS011;5118;48.570;7.916;2023-06-14T07:11:05;8.43;;;5.87;;
10154;SDS011;5118;48.570;7.916;2023-06-14T07:13:35;7.17;;;5.87;;
10154;SDS011;5118;48.570;7.916;2023-06-14T07:16:04;7.77;;;5.70;;
10154;SDS011;5118;48.570;7.916;2023-06-14T07:18:32;9.90;;;6.10;;
10154;SDS011;5118;48.570;7.916;2023-06-14T07:21:02;9.17;;;5.83;;
10154;SDS011;5118;48.570;7.916;2023-06-14T07:23:31;6.03;;;5.53;;
10154;SDS011;5118;48.570;7.916;2023-06-14T07:26:00;6.73;;;5.80;;
10154;SDS011;5118;48.570;7.916;2023-06-14T07:28:29;7.90;;;5.70;;
10154;SDS011;5118;48.570;7.916;2023-06-14T07:30:59;6.20;;;5.60;;
10154;SDS011;5118;48.570;7.916;2023-06-14T07:33:27;7.63;;;5.60;;
10154;SDS011;5118;48.570;7.916;2023-06-14T07:35:56;5.43;;;5.03;;
10154;SDS011;5118;48.570;7.916;2023-06-14T07:38:24;7.47;;;5.57;;
10154;SDS011;5118;48.570;7.916;2023-06-14T07:40:53;6.33;;;5.63;;
10154;SDS011;5118;48.570;7.916;2023-06-14T07:43:21;8.13;;;5.93;;
10154;SDS011;5118;48.570;7.916;2023-06-14T07:45:50;6.83;;;5.93;;
10154;SDS011;5118;48.570;7.916;2023-06-14T07:48:34;10.03;;;5.53;;
10154;SDS011;5118;48.570;7.916;2023-06-14T07:51:03;7.20;;;5.70;;
10154;SDS011;5118;48.570;7.916;2023-06-14T07:53:31;7.50;;;5.60;;
10154;SDS011;5118;48.570;7.916;2023-06-14T07:56:00;6.80;;;5.67;;
10154;SDS011;5118;48.570;7.916;2023-06-14T07:58:29;9.27;;;5.47;;
10154;SDS011;5118;48.570;7.916;2023-06-14T08:00:57;6.27;;;5.30;;
10154;SDS011;5118;48.570;7.916;2023-06-14T08:03:26;6.80;;;5.03;;
10154;SDS011;5118;48.570;7.916;2023-06-14T08:05:57;6.07;;;5.47;;
10154;SDS011;5118;48.570;7.916;2023-06-14T08:08:27;7.90;;;5.60;;
10154;SDS011;5118;48.570;7.916;2023-06-14T08:10:56;6.83;;;5.50;;
10154;SDS011;5118;48.570;7.916;2023-06-14T08:13:25;5.77;;;4.63;;
10154;SDS011;5118;48.570;7.916;2023-06-14T08:15:53;8.93;;;5.50;;
10154;SDS011;5118;48.570;7.916;2023-06-14T08:18:22;5.83;;;5.23;;
10154;SDS011;5118;48.570;7.916;2023-06-14T08:20:50;5.97;;;5.47;;
10154;SDS011;5118;48.570;7.916;2023-06-14T08:23:20;9.23;;;5.40;;
10154;SDS011;5118;48.570;7.916;2023-06-14T08:25:48;6.00;;;5.40;;
10154;SDS011;5118;48.570;7.916;2023-06-14T08:28:17;7.03;;;5.70;;
10154;SDS011;5118;48.570;7.916;2023-06-14T08:30:45;8.00;;;5.53;;
10154;SDS011;5118;48.570;7.916;2023-06-14T08:33:13;7.05;;;5.55;;
10154;SDS011;5118;48.570;7.916;2023-06-14T08:35:43;8.95;;;5.50;;
10154;SDS011;5118;48.570;7.916;2023-06-14T08:38:11;8.47;;;5.17;;
10154;SDS011;5118;48.570;7.916;2023-06-14T08:40:42;6.30;;;5.40;;
10154;SDS011;5118;48.570;7.916;2023-06-14T08:43:10;5.47;;;4.72;;
10154;SDS011;5118;48.570;7.916;2023-06-14T08:45:39;5.53;;;5.00;;
10154;SDS011;5118;48.570;7.916;2023-06-14T08:48:07;6.60;;;4.95;;
10154;SDS011;5118;48.570;7.916;2023-06-14T08:50:36;7.90;;;5.32;;
10154;SDS011;5118;48.570;7.916;2023-06-14T08:53:08;6.75;;;5.00;;
10154;SDS011;5118;48.570;7.916;2023-06-14T08:55:47;5.72;;;5.20;;
10154;SDS011;5118;48.570;7.916;2023-06-14T08:58:17;7.85;;;4.97;;
10154;SDS011;5118;48.570;7.916;2023-06-14T09:00:46;5.75;;;5.15;;
10154;SDS011;5118;48.570;7.916;2023-06-14T09:03:14;8.73;;;5.70;;
10154;SDS011;5118;48.570;7.916;2023-06-14T09:05:43;9.98;;;6.25;;
10154;SDS011;5118;48.570;7.916;2023-06-14T09:08:12;8.80;;;5.53;;
10154;SDS011;5118;48.570;7.916;2023-06-14T09:10:41;10.85;;;5.60;;
10154;SDS011;5118;48.570;7.916;2023-06-14T09:13:11;7.43;;;4.53;;
10154;SDS011;5118;48.570;7.916;2023-06-14T09:15:40;7.00;;;5.72;;
10154;SDS011;5118;48.570;7.916;2023-06-14T09:18:08;7.28;;;5.20;;
10154;SDS011;5118;48.570;7.916;2023-06-14T09:20:37;7.45;;;5.85;;
10154;SDS011;5118;48.570;7.916;2023-06-14T09:23:05;7.55;;;5.35;;
10154;SDS011;5118;48.570;7.916;2023-06-14T09:25:41;7.05;;;5.43;;
10154;SDS011;5118;48.570;7.916;2023-06-14T09:28:12;8.38;;;5.88;;
10154;SDS011;5118;48.570;7.916;2023-06-14T09:30:41;6.93;;;4.93;;
10154;SDS011;5118;48.570;7.916;2023-06-14T09:33:09;6.68;;;5.20;;
10154;SDS011;5118;48.570;7.916;2023-06-14T09:35:39;7.20;;;5.22;;
10154;SDS011;5118;48.570;7.916;2023-06-14T09:38:07;7.93;;;4.93;;
10154;SDS011;5118;48.570;7.916;2023-06-14T09:40:36;6.65;;;4.80;;
10154;SDS011;5118;48.570;7.916;2023-06-14T09:43:06;5.47;;;4.80;;
10154;SDS011;5118;48.570;7.916;2023-06-14T09:45:38;8.55;;;5.25;;
10154;SDS011;5118;48.570;7.916;2023-06-14T09:48:07;7.13;;;5.10;;
10154;SDS011;5118;48.570;7.916;2023-06-14T09:50:37;10.20;;;5.30;;
10154;SDS011;5118;48.570;7.916;2023-06-14T09:53:07;6.03;;;5.30;;
10154;SDS011;5118;48.570;7.916;2023-06-14T09:55:38;6.18;;;4.63;;
10154;SDS011;5118;48.570;7.916;2023-06-14T09:58:09;6.53;;;5.43;;
10154;SDS011;5118;48.570;7.916;2023-06-14T10:00:40;8.20;;;4.78;;
10154;SDS011;5118;48.570;7.916;2023-06-14T10:03:14;5.28;;;4.78;;
10154;SDS011;5118;48.570;7.916;2023-06-14T10:05:49;8.38;;;4.65;;
10154;SDS011;5118;48.570;7.916;2023-06-14T10:08:19;4.97;;;4.30;;
10154;SDS011;5118;48.570;7.916;2023-06-14T10:10:52;5.60;;;4.30;;
10154;SDS011;5118;48.570;7.916;2023-06-14T10:13:23;9.45;;;4.47;;
10154;SDS011;5118;48.570;7.916;2023-06-14T10:15:57;10.77;;;5.00;;
10154;SDS011;5118;48.570;7.916;2023-06-14T10:18:31;4.75;;;4.20;;
10154;SDS011;5118;48.570;7.916;2023-06-14T10:21:21;10.13;;;4.70;;
10154;SDS011;5118;48.570;7.916;2023-06-14T10:23:55;5.57;;;4.35;;
10154;SDS011;5118;48.570;7.916;2023-06-14T10:26:27;5.30;;;4.55;;
10154;SDS011;5118;48.570;7.916;2023-06-14T10:28:59;5.82;;;4.40;;
10154;SDS011;5118;48.570;7.916;2023-06-14T10:31:43;6.43;;;4.78;;
10154;SDS011;5118;48.570;7.916;2023-06-14T10:34:12;5.38;;;4.28;;
10154;SDS011;5118;48.570;7.916;2023-06-14T10:37:00;5.43;;;4.22;;
10154;SDS011;5118;48.570;7.916;2023-06-14T10:39:30;4.60;;;4.20;;
10154;SDS011;5118;48.570;7.916;2023-06-14T10:42:01;6.20;;;5.07;;
10154;SDS011;5118;48.570;7.916;2023-06-14T10:44:41;5.22;;;4.55;;
10154;SDS011;5118;48.570;7.916;2023-06-14T10:47:23;7.93;;;4.40;;
10154;SDS011;5118;48.570;7.916;2023-06-14T10:49:53;6.55;;;4.60;;
10154;SDS011;5118;48.570;7.916;2023-06-14T10:52:24;6.40;;;4.40;;
10154;SDS011;5118;48.570;7.916;2023-06-14T10:54:58;6.80;;;4.68;;
10154;SDS011;5118;48.570;7.916;2023-06-14T10:57:36;5.25;;;4.43;;
10154;SDS011;5118;48.570;7.916;2023-06-14T11:00:17;8.70;;;4.68;;
10154;SDS011;5118;48.570;7.916;2023-06-14T11:03:06;6.38;;;4.55;;
10154;SDS011;5118;48.570;7.916;2023-06-14T11:06:10;6.80;;;4.53;;
10154;SDS011;5118;48.570;7.916;2023-06-14T11:11:47;5.28;;;4.18;;
10154;SDS011;5118;48.570;7.916;2023-06-14T11:14:16;8.52;;;4.40;;
10154;SDS011;5118;48.570;7.916;2023-06-14T11:16:47;6.93;;;4.32;;
10154;SDS011;5118;48.570;7.916;2023-06-14T11:19:17;4.85;;;3.92;;
10154;SDS011;5118;48.570;7.916;2023-06-14T11:21:47;4.75;;;4.15;;
10154;SDS011;5118;48.570;7.916;2023-06-14T11:24:16;9.35;;;3.90;;
10154;SDS011;5118;48.570;7.916;2023-06-14T11:26:46;4.70;;;4.07;;
10154;SDS011;5118;48.570;7.916;2023-06-14T11:29:15;5.10;;;3.70;;
10154;SDS011;5118;48.570;7.916;2023-06-14T11:31:44;8.15;;;3.60;;
10154;SDS011;5118;48.570;7.916;2023-06-14T11:34:13;4.25;;;3.83;;
10154;SDS011;5118;48.570;7.916;2023-06-14T11:36:44;4.82;;;3.95;;
10154;SDS011;5118;48.570;7.916;2023-06-14T11:39:14;5.90;;;3.70;;
10154;SDS011;5118;48.570;7.916;2023-06-14T11:41:43;4.57;;;4.03;;
10154;SDS011;5118;48.570;7.916;2023-06-14T11:44:12;6.13;;;3.58;;
10154;SDS011;5118;48.570;7.916;2023-06-14T11:46:41;4.20;;;3.78;;
10154;SDS011;5118;48.570;7.916;2023-06-14T11:49:09;6.72;;;3.80;;
10154;SDS011;5118;48.570;7.916;2023-06-14T11:51:38;4.13;;;3.72;;
10154;SDS011;5118;48.570;7.916;2023-06-14T11:54:08;7.05;;;3.90;;
10154;SDS011;5118;48.570;7.916;2023-06-14T11:56:36;8.50;;;3.80;;
10154;SDS011;5118;48.570;7.916;2023-06-14T11:59:05;6.45;;;3.88;;
10154;SDS011;5118;48.570;7.916;2023-06-14T12:01:37;6.85;;;3.80;;
10154;SDS011;5118;48.570;7.916;2023-06-14T12:04:06;5.97;;;3.45;;
10154;SDS011;5118;48.570;7.916;2023-06-14T12:06:35;4.55;;;3.60;;
10154;SDS011;5118;48.570;7.916;2023-06-14T12:09:08;4.63;;;3.70;;
10154;SDS011;5118;48.570;7.916;2023-06-14T12:11:40;4.38;;;3.30;;
10154;SDS011;5118;48.570;7.916;2023-06-14T12:14:09;5.40;;;3.20;;
10154;SDS011;5118;48.570;7.916;2023-06-14T12:16:38;4.32;;;3.53;;
10154;SDS011;5118;48.570;7.916;2023-06-14T12:19:12;4.53;;;3.42;;
10154;SDS011;5118;48.570;7.916;2023-06-14T12:21:41;3.70;;;3.40;;
10154;SDS011;5118;48.570;7.916;2023-06-14T12:24:16;5.22;;;3.15;;
10154;SDS011;5118;48.570;7.916;2023-06-14T12:26:45;4.47;;;3.50;;
10154;SDS011;5118;48.570;7.916;2023-06-14T12:29:13;3.50;;;3.20;;
10154;SDS011;5118;48.570;7.916;2023-06-14T12:31:42;4.55;;;3.42;;
10154;SDS011;5118;48.570;7.916;2023-06-14T12:34:10;6.95;;;3.70;;
10154;SDS011;5118;48.570;7.916;2023-06-14T12:36:39;8.65;;;3.60;;
10154;SDS011;5118;48.570;7.916;2023-06-14T12:39:11;5.10;;;3.28;;
10154;SDS011;5118;48.570;7.916;2023-06-14T12:41:41;5.93;;;3.50;;
10154;SDS011;5118;48.570;7.916;2023-06-14T12:44:10;5.00;;;3.50;;
10154;SDS011;5118;48.570;7.916;2023-06-14T12:46:39;4.05;;;3.38;;
10154;SDS011;5118;48.570;7.916;2023-06-14T12:49:08;4.47;;;3.15;;
10154;SDS011;5118;48.570;7.916;2023-06-14T12:51:37;3.47;;;3.17;;
10154;SDS011;5118;48.570;7.916;2023-06-14T12:54:06;4.47;;;3.40;;
10154;SDS011;5118;48.570;7.916;2023-06-14T12:56:35;5.45;;;3.28;;
10154;SDS011;5118;48.570;7.916;2023-06-14T12:59:05;3.60;;;3.30;;
10154;SDS011;5118;48.570;7.916;2023-06-14T13:01:34;4.00;;;3.60;;
10154;SDS011;5118;48.570;7.916;2023-06-14T13:04:02;3.45;;;3.20;;
10154;SDS011;5118;48.570;7.916;2023-06-14T13:06:31;5.30;;;3.40;;
10154;SDS011;5118;48.570;7.916;2023-06-14T13:08:59;4.45;;;3.25;;
10154;SDS011;5118;48.570;7.916;2023-06-14T13:11:28;4.50;;;3.47;;
10154;SDS011;5118;48.570;7.916;2023-06-14T13:13:57;7.00;;;3.22;;
10154;SDS011;5118;48.570;7.916;2023-06-14T13:16:30;3.42;;;3.10;;
10154;SDS011;5118;48.570;7.916;2023-06-14T13:18:59;4.97;;;3.10;;
10154;SDS011;5118;48.570;7.916;2023-06-14T13:21:27;4.82;;;3.30;;
10154;SDS011;5118;48.570;7.916;2023-06-14T13:23:56;6.78;;;3.60;;
10154;SDS011;5118;48.570;7.916;2023-06-14T13:26:25;3.63;;;3.08;;
10154;SDS011;5118;48.570;7.916;2023-06-14T13:28:53;3.40;;;3.00;;
10154;SDS011;5118;48.570;7.916;2023-06-14T13:31:22;5.35;;;3.20;;
10154;SDS011;5118;48.570;7.916;2023-06-14T13:33:51;5.45;;;3.25;;
10154;SDS011;5118;48.570;7.916;2023-06-14T13:36:20;4.53;;;3.10;;
10154;SDS011;5118;48.570;7.916;2023-06-14T13:38:48;3.58;;;3.15;;
10154;SDS011;5118;48.570;7.916;2023-06-14T13:41:18;3.47;;;3.08;;
10154;SDS011;5118;48.570;7.916;2023-06-14T13:43:46;3.75;;;3.40;;
10154;SDS011;5118;48.570;7.916;2023-06-14T13:46:15;5.75;;;3.30;;
10154;SDS011;5118;48.570;7.916;2023-06-14T13:48:43;4.35;;;3.28;;
10154;SDS011;5118;48.570;7.916;2023-06-14T13:51:15;3.08;;;2.88;;
10154;SDS011;5118;48.570;7.916;2023-06-14T13:53:45;3.47;;;2.90;;
10154;SDS011;5118;48.570;7.916;2023-06-14T13:56:14;4.15;;;3.10;;
10154;SDS011;5118;48.570;7.916;2023-06-14T13:58:43;5.55;;;3.10;;
10154;SDS011;5118;48.570;7.916;2023-06-14T14:01:11;3.95;;;3.00;;
10154;SDS011;5118;48.570;7.916;2023-06-14T14:03:40;4.63;;;3.20;;
10154;SDS011;5118;48.570;7.916;2023-06-14T14:06:08;4.45;;;3.20;;
10154;SDS011;5118;48.570;7.916;2023-06-14T14:08:38;4.32;;;3.30;;
10154;SDS011;5118;48.570;7.916;2023-06-14T14:11:07;4.05;;;3.22;;
10154;SDS011;5118;48.570;7.916;2023-06-14T14:13:36;3.95;;;3.25;;
10154;SDS011;5118;48.570;7.916;2023-06-14T14:16:05;4.40;;;3.15;;
10154;SDS011;5118;48.570;7.916;2023-06-14T14:18:34;4.38;;;2.90;;
10154;SDS011;5118;48.570;7.916;2023-06-14T14:21:03;5.63;;;3.03;;
10154;SDS011;5118;48.570;7.916;2023-06-14T14:23:31;5.97;;;3.10;;
10154;SDS011;5118;48.570;7.916;2023-06-14T14:26:01;3.92;;;2.78;;
10154;SDS011;5118;48.570;7.916;2023-06-14T14:28:31;4.72;;;2.92;;
10154;SDS011;5118;48.570;7.916;2023-06-14T14:31:00;3.50;;;3.20;;
10154;SDS011;5118;48.570;7.916;2023-06-14T14:33:29;3.85;;;2.90;;
10154;SDS011;5118;48.570;7.916;2023-06-14T14:35:58;3.72;;;3.00;;
10154;SDS011;5118;48.570;7.916;2023-06-14T14:38:30;6.18;;;3.30;;
10154;SDS011;5118;48.570;7.916;2023-06-14T14:40:58;4.05;;;3.20;;
10154;SDS011;5118;48.570;7.916;2023-06-14T14:43:28;3.50;;;3.05;;
10154;SDS011;5118;48.570;7.916;2023-06-14T14:45:58;6.10;;;3.40;;
10154;SDS011;5118;48.570;7.916;2023-06-14T14:48:27;6.10;;;3.30;;
10154;SDS011;5118;48.570;7.916;2023-06-14T14:50:55;3.17;;;2.80;;
10154;SDS011;5118;48.570;7.916;2023-06-14T14:53:24;3.65;;;3.35;;
10154;SDS011;5118;48.570;7.916;2023-06-14T14:55:53;5.78;;;3.10;;
10154;SDS011;5118;48.570;7.916;2023-06-14T14:58:22;5.80;;;3.20;;
10154;SDS011;5118;48.570;7.916;2023-06-14T15:00:51;9.55;;;3.20;;
10154;SDS011;5118;48.570;7.916;2023-06-14T15:03:20;4.40;;;3.05;;
10154;SDS011;5118;48.570;7.916;2023-06-14T15:05:48;3.55;;;3.10;;
10154;SDS011;5118;48.570;7.916;2023-06-14T15:08:17;5.07;;;3.38;;
10154;SDS011;5118;48.570;7.916;2023-06-14T15:10:45;6.20;;;3.38;;
10154;SDS011;5118;48.570;7.916;2023-06-14T15:13:15;3.60;;;3.30;;
10154;SDS011;5118;48.570;7.916;2023-06-14T15:15:44;5.32;;;3.10;;
10154;SDS011;5118;48.570;7.916;2023-06-14T15:18:13;4.18;;;3.00;;
10154;SDS011;5118;48.570;7.916;2023-06-14T15:20:42;4.93;;;3.28;;